sensor_id;sensor_type;location;lat;lon;timestamp;noise_LAeq;noise_LA_min;noise_LA_max;noise_LA01;noise_LA95
76338;Laerm;20358;50.272;19.026;2024-03-08T00:02:18;43.39;36.31;59.85;;
76338;Laerm;20358;50.272;19.026;2024-03-08T00:05:25;43.41;35.59;58.69;;
76338;Laerm;20358;50.272;19.026;2024-03-08T00:08:33;42.68;35.38;56.55;;
76338;Laerm;20358;50.272;19.026;2024-03-08T00:11:40;39.47;34.79;55.42;;
76338;Laerm;20358;50.272;19.026;2024-03-08T00:14:46;40.97;35.09;53.77;;
76338;Laerm;20358;50.272;19.026;2024-03-08T00:17:53;42.99;34.58;55.43;;
76338;Laerm;20358;50.272;19.026;2024-03-08T00:20:59;41.40;34.95;58.15;;
76338;Laerm;20358;50.272;19.026;2024-03-08T00:24:09;42.46;34.55;60.36;;
76338;Laerm;20358;50.272;19.026;2024-03-08T00:27:15;43.68;35.36;58.16;;
76338;Laerm;20358;50.272;19.026;2024-03-08T00:30:24;37.39;35.10;45.09;;
76338;Laerm;20358;50.272;19.026;2024-03-08T00:33:30;41.53;34.81;59.19;;
76338;Laerm;20358;50.272;19.026;2024-03-08T00:36:37;41.19;34.49;57.05;;
76338;Laerm;20358;50.272;19.026;2024-03-08T00:39:46;36.28;34.21;40.21;;
76338;Laerm;20358;50.272;19.026;2024-03-08T00:42:53;38.82;34.56;56.90;;
76338;Laerm;20358;50.272;19.026;2024-03-08T00:45:59;42.77;34.97;56.45;;
76338;Laerm;20358;50.272;19.026;2024-03-08T00:49:06;41.16;34.68;56.76;;
76338;Laerm;20358;50.272;19.026;2024-03-08T00:52:12;40.89;34.84;56.41;;
76338;Laerm;20358;50.272;19.026;2024-03-08T00:55:21;50.95;36.78;64.15;;
76338;Laerm;20358;50.272;19.026;2024-03-08T00:58:27;38.56;34.61;55.87;;
76338;Laerm;20358;50.272;19.026;2024-03-08T01:01:34;39.62;35.24;52.86;;
76338;Laerm;20358;50.272;19.026;2024-03-08T01:04:40;37.66;34.20;52.92;;
76338;Laerm;20358;50.272;19.026;2024-03-08T01:07:47;39.23;34.61;51.55;;
76338;Laerm;20358;50.272;19.026;2024-03-08T01:10:55;43.63;34.91;60.22;;
76338;Laerm;20358;50.272;19.026;2024-03-08T01:14:03;40.17;34.84;54.49;;
76338;Laerm;20358;50.272;19.026;2024-03-08T01:17:09;44.07;34.86;65.29;;
76338;Laerm;20358;50.272;19.026;2024-03-08T01:20:16;40.78;35.08;55.35;;
76338;Laerm;20358;50.272;19.026;2024-03-08T01:23:23;39.90;35.03;54.13;;
76338;Laerm;20358;50.272;19.026;2024-03-08T01:26:33;41.97;35.09;58.47;;
76338;Laerm;20358;50.272;19.026;2024-03-08T01:29:39;40.28;34.51;57.26;;
76338;Laerm;20358;50.272;19.026;2024-03-08T01:32:46;43.19;35.29;57.82;;
76338;Laerm;20358;50.272;19.026;2024-03-08T01:35:53;39.55;35.29;49.79;;
76338;Laerm;20358;50.272;19.026;2024-03-08T01:39:00;42.35;35.31;59.46;;
76338;Laerm;20358;50.272;19.026;2024-03-08T01:42:14;45.07;35.36;55.91;;
76338;Laerm;20358;50.272;19.026;2024-03-08T01:45:21;40.21;35.09;59.43;;
76338;Laerm;20358;50.272;19.026;2024-03-08T01:48:28;42.80;35.98;57.46;;
76338;Laerm;20358;50.272;19.026;2024-03-08T01:51:35;47.40;38.64;57.06;;
76338;Laerm;20358;50.272;19.026;2024-03-08T01:54:42;41.03;34.81;57.05;;
76338;Laerm;20358;50.272;19.026;2024-03-08T01:57:51;39.86;35.10;53.12;;
76338;Laerm;20358;50.272;19.026;2024-03-08T02:00:57;40.26;34.83;54.92;;
76338;Laerm;20358;50.272;19.026;2024-03-08T02:04:08;40.22;35.21;57.86;;
76338;Laerm;20358;50.272;19.026;2024-03-08T02:07:14;36.98;34.60;46.54;;
76338;Laerm;20358;50.272;19.026;2024-03-08T02:10:22;41.89;34.55;60.01;;
76338;Laerm;20358;50.272;19.026;2024-03-08T02:13:30;38.95;34.83;55.42;;
76338;Laerm;20358;50.272;19.026;2024-03-08T02:16:38;38.14;34.66;48.19;;
76338;Laerm;20358;50.272;19.026;2024-03-08T02:19:44;40.95;34.45;56.87;;
76338;Laerm;20358;50.272;19.026;2024-03-08T02:22:54;41.80;35.36;57.42;;
76338;Laerm;20358;50.272;19.026;2024-03-08T02:26:01;42.86;34.11;56.31;;
76338;Laerm;20358;50.272;19.026;2024-03-08T02:29:08;39.08;35.33;55.30;;
76338;Laerm;20358;50.272;19.026;2024-03-08T02:32:14;40.79;35.00;52.09;;
76338;Laerm;20358;50.272;19.026;2024-03-08T02:35:20;41.33;35.77;57.76;;
76338;Laerm;20358;50.272;19.026;2024-03-08T02:38:30;42.82;35.53;57.13;;
76338;Laerm;20358;50.272;19.026;2024-03-08T02:41:36;42.19;35.71;56.41;;
76338;Laerm;20358;50.272;19.026;2024-03-08T02:44:43;38.02;35.07;47.59;;
76338;Laerm;20358;50.272;19.026;2024-03-08T02:47:49;45.32;35.38;60.54;;
76338;Laerm;20358;50.272;19.026;2024-03-08T02:50:56;40.34;35.09;51.70;;
76338;Laerm;20358;50.272;19.026;2024-03-08T02:54:05;40.31;35.38;55.16;;
76338;Laerm;20358;50.272;19.026;2024-03-08T02:57:14;41.39;35.15;58.95;;
76338;Laerm;20358;50.272;19.026;2024-03-08T03:00:21;37.97;34.94;46.82;;
76338;Laerm;20358;50.272;19.026;2024-03-08T03:03:28;42.56;35.39;57.26;;
76338;Laerm;20358;50.272;19.026;2024-03-08T03:06:34;41.67;35.02;59.76;;
76338;Laerm;20358;50.272;19.026;2024-03-08T03:09:43;41.08;35.37;53.24;;
76338;Laerm;20358;50.272;19.026;2024-03-08T03:12:49;39.40;34.98;51.42;;
76338;Laerm;20358;50.272;19.026;2024-03-08T03:15:56;45.77;35.55;62.00;;
76338;Laerm;20358;50.272;19.026;2024-03-08T03:19:02;42.20;35.01;58.00;;
76338;Laerm;20358;50.272;19.026;2024-03-08T03:22:09;42.08;35.91;58.20;;
76338;Laerm;20358;50.272;19.026;2024-03-08T03:25:18;46.25;35.87;70.03;;
76338;Laerm;20358;50.272;19.026;2024-03-08T03:28:28;44.67;35.64;68.38;;
76338;Laerm;20358;50.272;19.026;2024-03-08T03:31:35;44.85;35.50;58.11;;
76338;Laerm;20358;50.272;19.026;2024-03-08T03:34:44;41.35;35.37;54.97;;
76338;Laerm;20358;50.272;19.026;2024-03-08T03:37:50;44.85;36.13;57.12;;
76338;Laerm;20358;50.272;19.026;2024-03-08T03:41:07;44.73;35.64;59.89;;
76338;Laerm;20358;50.272;19.026;2024-03-08T03:44:17;46.04;36.74;58.06;;
76338;Laerm;20358;50.272;19.026;2024-03-08T03:47:24;43.26;35.69;53.44;;
76338;Laerm;20358;50.272;19.026;2024-03-08T03:50:30;47.23;36.95;62.50;;
76338;Laerm;20358;50.272;19.026;2024-03-08T03:53:39;42.68;35.89;56.81;;
76338;Laerm;20358;50.272;19.026;2024-03-08T03:56:48;45.45;36.25;56.56;;
76338;Laerm;20358;50.272;19.026;2024-03-08T03:59:56;47.55;36.79;60.08;;
76338;Laerm;20358;50.272;19.026;2024-03-08T04:03:03;43.61;36.40;57.27;;
76338;Laerm;20358;50.272;19.026;2024-03-08T04:06:11;46.67;36.85;62.00;;
76338;Laerm;20358;50.272;19.026;2024-03-08T04:09:17;46.50;36.63;55.58;;
76338;Laerm;20358;50.272;19.026;2024-03-08T04:12:28;46.06;36.66;58.46;;
76338;Laerm;20358;50.272;19.026;2024-03-08T04:15:35;47.98;37.92;62.66;;
76338;Laerm;20358;50.272;19.026;2024-03-08T04:18:42;45.88;35.79;58.52;;
76338;Laerm;20358;50.272;19.026;2024-03-08T04:21:48;48.51;38.40;63.00;;
76338;Laerm;20358;50.272;19.026;2024-03-08T04:24:55;47.27;37.59;59.69;;
76338;Laerm;20358;50.272;19.026;2024-03-08T04:28:04;47.42;37.92;58.04;;
76338;Laerm;20358;50.272;19.026;2024-03-08T04:31:11;47.46;37.79;61.81;;
76338;Laerm;20358;50.272;19.026;2024-03-08T04:34:18;48.38;38.91;60.66;;
76338;Laerm;20358;50.272;19.026;2024-03-08T04:37:25;49.11;37.30;59.81;;
76338;Laerm;20358;50.272;19.026;2024-03-08T04:40:32;50.28;38.79;66.68;;
76338;Laerm;20358;50.272;19.026;2024-03-08T04:43:41;51.11;40.68;62.97;;
76338;Laerm;20358;50.272;19.026;2024-03-08T04:46:48;51.15;38.18;62.12;;
76338;Laerm;20358;50.272;19.026;2024-03-08T04:49:54;50.30;39.78;62.39;;
76338;Laerm;20358;50.272;19.026;2024-03-08T04:53:01;50.96;40.48;67.93;;
76338;Laerm;20358;50.272;19.026;2024-03-08T04:56:12;50.88;37.58;63.08;;
76338;Laerm;20358;50.272;19.026;2024-03-08T04:59:20;50.26;40.52;58.24;;
76338;Laerm;20358;50.272;19.026;2024-03-08T05:02:27;52.00;39.05;67.06;;
76338;Laerm;20358;50.272;19.026;2024-03-08T05:05:33;51.47;40.82;62.42;;
76338;Laerm;20358;50.272;19.026;2024-03-08T05:08:40;49.77;37.47;61.65;;
76338;Laerm;20358;50.272;19.026;2024-03-08T05:11:47;51.82;40.04;70.01;;
76338;Laerm;20358;50.272;19.026;2024-03-08T05:14:56;51.40;42.26;70.07;;
76338;Laerm;20358;50.272;19.026;2024-03-08T05:18:03;51.14;39.82;62.99;;
76338;Laerm;20358;50.272;19.026;2024-03-08T05:21:10;50.53;40.63;64.94;;
76338;Laerm;20358;50.272;19.026;2024-03-08T05:24:17;51.59;42.05;64.49;;
76338;Laerm;20358;50.272;19.026;2024-03-08T05:27:23;60.75;47.79;69.25;;
76338;Laerm;20358;50.272;19.026;2024-03-08T05:30:33;54.11;38.90;69.35;;
76338;Laerm;20358;50.272;19.026;2024-03-08T05:33:40;50.70;42.32;60.37;;
76338;Laerm;20358;50.272;19.026;2024-03-08T05:36:46;51.06;41.83;60.19;;
76338;Laerm;20358;50.272;19.026;2024-03-08T05:39:54;52.53;41.73;69.22;;
76338;Laerm;20358;50.272;19.026;2024-03-08T05:43:00;52.64;43.80;66.37;;
76338;Laerm;20358;50.272;19.026;2024-03-08T05:46:10;51.28;41.59;59.35;;
76338;Laerm;20358;50.272;19.026;2024-03-08T05:49:16;52.65;42.68;69.03;;
76338;Laerm;20358;50.272;19.026;2024-03-08T05:52:23;51.63;42.93;59.78;;
76338;Laerm;20358;50.272;19.026;2024-03-08T05:55:29;55.00;42.53;69.29;;
76338;Laerm;20358;50.272;19.026;2024-03-08T05:58:38;52.75;38.81;76.03;;
76338;Laerm;20358;50.272;19.026;2024-03-08T06:01:47;53.97;43.36;69.76;;
76338;Laerm;20358;50.272;19.026;2024-03-08T06:04:53;51.22;39.99;66.67;;
76338;Laerm;20358;50.272;19.026;2024-03-08T06:07:59;51.85;41.99;70.19;;
76338;Laerm;20358;50.272;19.026;2024-03-08T06:11:06;53.32;41.65;64.72;;
76338;Laerm;20358;50.272;19.026;2024-03-08T06:14:12;52.75;44.76;67.61;;
76338;Laerm;20358;50.272;19.026;2024-03-08T06:17:24;52.88;43.69;64.24;;
76338;Laerm;20358;50.272;19.026;2024-03-08T06:20:30;53.95;45.28;68.65;;
76338;Laerm;20358;50.272;19.026;2024-03-08T06:23:37;53.13;43.72;69.58;;
76338;Laerm;20358;50.272;19.026;2024-03-08T06:26:43;51.66;41.68;61.11;;
76338;Laerm;20358;50.272;19.026;2024-03-08T06:29:50;52.28;45.45;61.99;;
76338;Laerm;20358;50.272;19.026;2024-03-08T06:32:58;55.75;45.53;81.14;;
76338;Laerm;20358;50.272;19.026;2024-03-08T06:36:06;53.01;45.11;66.24;;
76338;Laerm;20358;50.272;19.026;2024-03-08T06:39:12;53.96;44.66;65.86;;
76338;Laerm;20358;50.272;19.026;2024-03-08T06:42:18;54.51;45.11;69.49;;
76338;Laerm;20358;50.272;19.026;2024-03-08T06:45:24;52.80;44.03;62.22;;
76338;Laerm;20358;50.272;19.026;2024-03-08T06:48:34;55.12;44.22;71.88;;
76338;Laerm;20358;50.272;19.026;2024-03-08T06:51:41;53.31;45.02;65.23;;
76338;Laerm;20358;50.272;19.026;2024-03-08T06:54:48;52.24;42.10;68.13;;
76338;Laerm;20358;50.272;19.026;2024-03-08T06:57:55;53.28;44.19;63.25;;
76338;Laerm;20358;50.272;19.026;2024-03-08T07:01:01;52.16;44.15;63.87;;
76338;Laerm;20358;50.272;19.026;2024-03-08T07:04:13;52.69;43.86;66.11;;
76338;Laerm;20358;50.272;19.026;2024-03-08T07:07:20;51.54;43.69;70.05;;
76338;Laerm;20358;50.272;19.026;2024-03-08T07:10:26;52.90;44.34;63.06;;
76338;Laerm;20358;50.272;19.026;2024-03-08T07:13:33;54.09;44.16;66.00;;
76338;Laerm;20358;50.272;19.026;2024-03-08T07:16:38;52.74;44.80;65.41;;
76338;Laerm;20358;50.272;19.026;2024-03-08T07:19:48;51.59;41.71;64.03;;
76338;Laerm;20358;50.272;19.026;2024-03-08T07:22:55;54.08;45.19;66.28;;
76338;Laerm;20358;50.272;19.026;2024-03-08T07:26:01;52.09;43.15;65.82;;
76338;Laerm;20358;50.272;19.026;2024-03-08T07:29:07;52.14;42.79;65.54;;
76338;Laerm;20358;50.272;19.026;2024-03-08T07:32:14;52.50;43.01;64.89;;
76338;Laerm;20358;50.272;19.026;2024-03-08T07:35:26;51.60;45.30;59.45;;
76338;Laerm;20358;50.272;19.026;2024-03-08T07:38:33;51.83;42.83;65.20;;
76338;Laerm;20358;50.272;19.026;2024-03-08T07:41:39;52.32;43.25;62.39;;
76338;Laerm;20358;50.272;19.026;2024-03-08T07:44:46;52.68;46.53;65.94;;
76338;Laerm;20358;50.272;19.026;2024-03-08T07:47:53;51.90;41.02;65.24;;
76338;Laerm;20358;50.272;19.026;2024-03-08T07:51:03;52.51;45.27;66.78;;
76338;Laerm;20358;50.272;19.026;2024-03-08T07:54:10;52.32;42.40;63.80;;
76338;Laerm;20358;50.272;19.026;2024-03-08T07:57:17;52.19;43.06;64.96;;
76338;Laerm;20358;50.272;19.026;2024-03-08T08:00:24;51.71;43.11;65.39;;
76338;Laerm;20358;50.272;19.026;2024-03-08T08:03:31;51.84;43.80;63.91;;
76338;Laerm;20358;50.272;19.026;2024-03-08T08:06:40;51.85;42.18;63.73;;
76338;Laerm;20358;50.272;19.026;2024-03-08T08:09:47;51.80;42.84;64.37;;
76338;Laerm;20358;50.272;19.026;2024-03-08T08:12:53;52.75;43.21;66.30;;
76338;Laerm;20358;50.272;19.026;2024-03-08T08:16:04;51.29;39.58;66.45;;
76338;Laerm;20358;50.272;19.026;2024-03-08T08:19:11;53.27;40.72;66.70;;
76338;Laerm;20358;50.272;19.026;2024-03-08T08:22:20;52.88;44.87;65.27;;
76338;Laerm;20358;50.272;19.026;2024-03-08T08:25:26;52.57;42.79;65.49;;
76338;Laerm;20358;50.272;19.026;2024-03-08T08:28:33;50.38;42.87;59.39;;
76338;Laerm;20358;50.272;19.026;2024-03-08T08:31:39;53.00;44.42;66.00;;
76338;Laerm;20358;50.272;19.026;2024-03-08T08:34:46;53.54;45.17;64.50;;
76338;Laerm;20358;50.272;19.026;2024-03-08T08:37:54;53.34;43.98;68.27;;
76338;Laerm;20358;50.272;19.026;2024-03-08T08:41:04;51.83;42.59;62.47;;
76338;Laerm;20358;50.272;19.026;2024-03-08T08:44:10;52.61;41.61;68.46;;
76338;Laerm;20358;50.272;19.026;2024-03-08T08:47:19;53.79;45.16;66.81;;
76338;Laerm;20358;50.272;19.026;2024-03-08T08:50:26;53.91;43.61;69.68;;
76338;Laerm;20358;50.272;19.026;2024-03-08T08:53:36;53.10;44.29;63.84;;
76338;Laerm;20358;50.272;19.026;2024-03-08T08:56:43;52.32;41.42;63.43;;
76338;Laerm;20358;50.272;19.026;2024-03-08T08:59:50;52.45;42.86;63.05;;
76338;Laerm;20358;50.272;19.026;2024-03-08T09:02:56;53.29;43.20;71.15;;
76338;Laerm;20358;50.272;19.026;2024-03-08T09:06:06;51.89;42.42;66.43;;
76338;Laerm;20358;50.272;19.026;2024-03-08T09:09:16;50.62;41.58;61.01;;
76338;Laerm;20358;50.272;19.026;2024-03-08T09:12:23;53.62;39.52;73.41;;
76338;Laerm;20358;50.272;19.026;2024-03-08T09:15:29;51.68;41.00;62.51;;
76338;Laerm;20358;50.272;19.026;2024-03-08T09:18:35;51.53;39.78;65.48;;
76338;Laerm;20358;50.272;19.026;2024-03-08T09:21:41;51.85;42.20;63.92;;
76338;Laerm;20358;50.272;19.026;2024-03-08T09:24:51;51.77;39.87;61.61;;
76338;Laerm;20358;50.272;19.026;2024-03-08T09:27:57;50.14;40.99;61.20;;
76338;Laerm;20358;50.272;19.026;2024-03-08T09:31:04;50.50;41.59;60.17;;
76338;Laerm;20358;50.272;19.026;2024-03-08T09:34:11;50.80;40.85;59.44;;
76338;Laerm;20358;50.272;19.026;2024-03-08T09:37:27;50.63;41.75;69.75;;
76338;Laerm;20358;50.272;19.026;2024-03-08T09:40:37;51.62;42.84;62.74;;
76338;Laerm;20358;50.272;19.026;2024-03-08T09:43:44;50.72;42.72;62.01;;
76338;Laerm;20358;50.272;19.026;2024-03-08T09:46:52;50.76;41.35;61.45;;
76338;Laerm;20358;50.272;19.026;2024-03-08T09:49:58;51.50;41.34;65.35;;
76338;Laerm;20358;50.272;19.026;2024-03-08T09:53:05;51.91;41.94;67.85;;
76338;Laerm;20358;50.272;19.026;2024-03-08T09:56:15;51.49;38.77;69.53;;
76338;Laerm;20358;50.272;19.026;2024-03-08T09:59:21;52.54;43.59;62.51;;
76338;Laerm;20358;50.272;19.026;2024-03-08T10:02:39;52.90;41.06;68.93;;
76338;Laerm;20358;50.272;19.026;2024-03-08T10:05:46;54.40;43.14;77.54;;
76338;Laerm;20358;50.272;19.026;2024-03-08T10:08:52;52.48;43.20;65.85;;
76338;Laerm;20358;50.272;19.026;2024-03-08T10:12:04;53.07;41.28;65.79;;
76338;Laerm;20358;50.272;19.026;2024-03-08T10:15:10;52.43;41.50;65.97;;
76338;Laerm;20358;50.272;19.026;2024-03-08T10:18:23;52.26;42.92;65.52;;
76338;Laerm;20358;50.272;19.026;2024-03-08T10:21:29;51.01;41.02;62.48;;
76338;Laerm;20358;50.272;19.026;2024-03-08T10:24:36;51.41;41.01;61.44;;
76338;Laerm;20358;50.272;19.026;2024-03-08T10:27:45;51.38;40.66;62.76;;
76338;Laerm;20358;50.272;19.026;2024-03-08T10:30:52;53.41;40.90;69.46;;
76338;Laerm;20358;50.272;19.026;2024-03-08T10:33:58;55.40;42.32;74.85;;
76338;Laerm;20358;50.272;19.026;2024-03-08T10:37:07;55.52;39.42;67.00;;
76338;Laerm;20358;50.272;19.026;2024-03-08T10:40:20;52.43;39.65;67.86;;
76338;Laerm;20358;50.272;19.026;2024-03-08T10:43:40;54.05;42.34;71.58;;
76338;Laerm;20358;50.272;19.026;2024-03-08T10:47:02;55.89;41.30;68.95;;
76338;Laerm;20358;50.272;19.026;2024-03-08T10:50:18;51.42;40.59;61.36;;
76338;Laerm;20358;50.272;19.026;2024-03-08T10:53:28;50.37;41.12;68.17;;
76338;Laerm;20358;50.272;19.026;2024-03-08T10:56:35;52.22;43.28;68.04;;
76338;Laerm;20358;50.272;19.026;2024-03-08T10:59:47;52.02;41.01;68.15;;
76338;Laerm;20358;50.272;19.026;2024-03-08T11:02:58;52.03;40.84;62.11;;
76338;Laerm;20358;50.272;19.026;2024-03-08T11:06:06;49.77;40.35;63.48;;
76338;Laerm;20358;50.272;19.026;2024-03-08T11:09:29;51.12;42.83;62.43;;
76338;Laerm;20358;50.272;19.026;2024-03-08T11:12:37;51.54;40.40;64.99;;
76338;Laerm;20358;50.272;19.026;2024-03-08T11:15:47;50.46;38.66;58.89;;
76338;Laerm;20358;50.272;19.026;2024-03-08T11:18:54;52.36;41.22;69.54;;
76338;Laerm;20358;50.272;19.026;2024-03-08T11:22:03;51.77;42.66;70.72;;
76338;Laerm;20358;50.272;19.026;2024-03-08T11:25:30;50.64;43.62;62.15;;
76338;Laerm;20358;50.272;19.026;2024-03-08T11:28:40;50.71;40.62;58.49;;
76338;Laerm;20358;50.272;19.026;2024-03-08T11:31:48;50.56;40.07;60.69;;
76338;Laerm;20358;50.272;19.026;2024-03-08T11:34:55;50.29;39.44;62.30;;
76338;Laerm;20358;50.272;19.026;2024-03-08T11:38:01;53.81;37.75;66.75;;
76338;Laerm;20358;50.272;19.026;2024-03-08T11:41:08;51.94;43.85;60.59;;
76338;Laerm;20358;50.272;19.026;2024-03-08T11:44:20;50.43;40.88;61.89;;
76338;Laerm;20358;50.272;19.026;2024-03-08T11:47:30;51.52;42.69;60.78;;
76338;Laerm;20358;50.272;19.026;2024-03-08T11:50:35;51.06;42.58;64.34;;
76338;Laerm;20358;50.272;19.026;2024-03-08T11:53:42;51.70;40.49;65.65;;
76338;Laerm;20358;50.272;19.026;2024-03-08T11:56:52;50.81;40.86;64.29;;
76338;Laerm;20358;50.272;19.026;2024-03-08T11:59:59;52.36;41.83;67.14;;
76338;Laerm;20358;50.272;19.026;2024-03-08T12:03:12;50.52;39.18;66.94;;
76338;Laerm;20358;50.272;19.026;2024-03-08T12:06:19;49.76;40.72;63.56;;
76338;Laerm;20358;50.272;19.026;2024-03-08T12:09:25;50.53;41.74;61.34;;
76338;Laerm;20358;50.272;19.026;2024-03-08T12:12:33;51.30;42.61;64.19;;
76338;Laerm;20358;50.272;19.026;2024-03-08T12:15:40;51.00;40.46;62.98;;
76338;Laerm;20358;50.272;19.026;2024-03-08T12:18:52;52.08;41.96;65.98;;
76338;Laerm;20358;50.272;19.026;2024-03-08T12:22:08;51.45;41.32;62.27;;
76338;Laerm;20358;50.272;19.026;2024-03-08T12:25:16;50.38;39.81;59.48;;
76338;Laerm;20358;50.272;19.026;2024-03-08T12:28:23;50.61;40.46;68.15;;
76338;Laerm;20358;50.272;19.026;2024-03-08T12:31:30;51.89;41.52;68.54;;
76338;Laerm;20358;50.272;19.026;2024-03-08T12:34:40;53.86;43.48;66.97;;
76338;Laerm;20358;50.272;19.026;2024-03-08T12:37:52;52.70;42.03;65.27;;
76338;Laerm;20358;50.272;19.026;2024-03-08T12:40:59;53.75;44.76;67.90;;
76338;Laerm;20358;50.272;19.026;2024-03-08T12:44:06;51.96;43.18;62.44;;
76338;Laerm;20358;50.272;19.026;2024-03-08T12:47:14;54.42;42.83;70.36;;
76338;Laerm;20358;50.272;19.026;2024-03-08T12:50:24;54.58;43.86;70.70;;
76338;Laerm;20358;50.272;19.026;2024-03-08T12:53:30;51.97;43.29;60.92;;
76338;Laerm;20358;50.272;19.026;2024-03-08T12:56:37;52.40;44.00;61.75;;
76338;Laerm;20358;50.272;19.026;2024-03-08T12:59:43;51.93;42.77;68.90;;
76338;Laerm;20358;50.272;19.026;2024-03-08T13:02:50;52.76;42.51;67.92;;
76338;Laerm;20358;50.272;19.026;2024-03-08T13:05:59;51.93;44.34;61.17;;
76338;Laerm;20358;50.272;19.026;2024-03-08T13:09:06;54.55;42.90;74.12;;
76338;Laerm;20358;50.272;19.026;2024-03-08T13:12:12;52.65;40.93;64.65;;
76338;Laerm;20358;50.272;19.026;2024-03-08T13:15:19;54.35;41.25;68.12;;
76338;Laerm;20358;50.272;19.026;2024-03-08T13:18:25;51.99;39.33;64.55;;
76338;Laerm;20358;50.272;19.026;2024-03-08T13:21:35;52.02;42.97;60.37;;
76338;Laerm;20358;50.272;19.026;2024-03-08T13:24:41;52.50;40.65;65.45;;
76338;Laerm;20358;50.272;19.026;2024-03-08T13:27:48;54.67;43.43;68.91;;
76338;Laerm;20358;50.272;19.026;2024-03-08T13:30:56;53.45;42.98;80.90;;
76338;Laerm;20358;50.272;19.026;2024-03-08T13:34:06;55.28;43.20;68.88;;
76338;Laerm;20358;50.272;19.026;2024-03-08T13:37:17;53.00;44.09;64.55;;
76338;Laerm;20358;50.272;19.026;2024-03-08T13:40:24;53.96;40.71;66.50;;
76338;Laerm;20358;50.272;19.026;2024-03-08T13:43:29;53.81;44.05;63.80;;
76338;Laerm;20358;50.272;19.026;2024-03-08T13:46:38;53.30;45.29;66.81;;
76338;Laerm;20358;50.272;19.026;2024-03-08T13:49:45;56.50;47.60;69.19;;
76338;Laerm;20358;50.272;19.026;2024-03-08T13:52:57;56.02;46.81;68.60;;
76338;Laerm;20358;50.272;19.026;2024-03-08T13:56:04;53.56;43.62;62.23;;
76338;Laerm;20358;50.272;19.026;2024-03-08T13:59:14;53.24;42.45;66.03;;
76338;Laerm;20358;50.272;19.026;2024-03-08T14:02:21;51.51;40.92;63.49;;
76338;Laerm;20358;50.272;19.026;2024-03-08T14:05:31;52.04;42.46;64.54;;
76338;Laerm;20358;50.272;19.026;2024-03-08T14:08:41;52.71;42.18;64.55;;
76338;Laerm;20358;50.272;19.026;2024-03-08T14:11:47;52.15;42.04;63.43;;
76338;Laerm;20358;50.272;19.026;2024-03-08T14:14:56;52.65;42.32;63.57;;
76338;Laerm;20358;50.272;19.026;2024-03-08T14:18:04;53.07;43.63;61.63;;
76338;Laerm;20358;50.272;19.026;2024-03-08T14:21:11;50.69;42.35;60.14;;
76338;Laerm;20358;50.272;19.026;2024-03-08T14:24:20;53.92;46.43;63.43;;
76338;Laerm;20358;50.272;19.026;2024-03-08T14:27:26;55.12;46.47;72.57;;
76338;Laerm;20358;50.272;19.026;2024-03-08T14:30:33;55.95;47.61;66.66;;
76338;Laerm;20358;50.272;19.026;2024-03-08T14:33:41;53.41;46.23;64.19;;
76338;Laerm;20358;50.272;19.026;2024-03-08T14:36:52;52.96;44.54;62.25;;
76338;Laerm;20358;50.272;19.026;2024-03-08T14:40:01;51.93;39.69;68.28;;
76338;Laerm;20358;50.272;19.026;2024-03-08T14:43:08;53.29;45.15;61.72;;
76338;Laerm;20358;50.272;19.026;2024-03-08T14:46:15;54.04;44.43;63.65;;
76338;Laerm;20358;50.272;19.026;2024-03-08T14:49:23;51.82;44.23;62.09;;
76338;Laerm;20358;50.272;19.026;2024-03-08T14:52:31;52.47;42.88;62.66;;
76338;Laerm;20358;50.272;19.026;2024-03-08T14:55:41;52.16;43.71;60.96;;
76338;Laerm;20358;50.272;19.026;2024-03-08T14:58:50;52.68;42.20;61.33;;
76338;Laerm;20358;50.272;19.026;2024-03-08T15:01:56;53.45;44.89;60.64;;
76338;Laerm;20358;50.272;19.026;2024-03-08T15:05:05;53.58;44.43;62.78;;
76338;Laerm;20358;50.272;19.026;2024-03-08T15:08:15;52.36;43.91;60.67;;
76338;Laerm;20358;50.272;19.026;2024-03-08T15:11:30;53.21;45.25;63.42;;
76338;Laerm;20358;50.272;19.026;2024-03-08T15:14:40;52.30;43.81;59.06;;
76338;Laerm;20358;50.272;19.026;2024-03-08T15:17:46;53.20;43.64;66.15;;
76338;Laerm;20358;50.272;19.026;2024-03-08T15:20:55;53.03;42.10;66.02;;
76338;Laerm;20358;50.272;19.026;2024-03-08T15:24:01;52.19;41.54;62.23;;
76338;Laerm;20358;50.272;19.026;2024-03-08T15:27:10;53.17;44.04;61.73;;
76338;Laerm;20358;50.272;19.026;2024-03-08T15:30:16;53.34;42.83;67.83;;
76338;Laerm;20358;50.272;19.026;2024-03-08T15:33:26;54.57;44.75;67.32;;
76338;Laerm;20358;50.272;19.026;2024-03-08T15:36:33;52.17;44.19;60.37;;
76338;Laerm;20358;50.272;19.026;2024-03-08T15:39:40;52.87;43.77;61.42;;
76338;Laerm;20358;50.272;19.026;2024-03-08T15:42:50;53.26;43.53;63.99;;
76338;Laerm;20358;50.272;19.026;2024-03-08T15:46:01;53.46;44.66;72.15;;
76338;Laerm;20358;50.272;19.026;2024-03-08T15:49:07;52.42;42.15;60.66;;
76338;Laerm;20358;50.272;19.026;2024-03-08T15:52:15;51.74;42.90;60.50;;
76338;Laerm;20358;50.272;19.026;2024-03-08T15:55:21;53.21;41.61;61.81;;
76338;Laerm;20358;50.272;19.026;2024-03-08T15:58:34;53.07;42.30;63.62;;
76338;Laerm;20358;50.272;19.026;2024-03-08T16:01:41;58.54;42.12;82.16;;
76338;Laerm;20358;50.272;19.026;2024-03-08T16:04:53;54.00;43.86;62.92;;
76338;Laerm;20358;50.272;19.026;2024-03-08T16:07:59;54.28;43.95;65.34;;
76338;Laerm;20358;50.272;19.026;2024-03-08T16:11:06;51.88;40.77;61.44;;
76338;Laerm;20358;50.272;19.026;2024-03-08T16:14:16;53.79;43.21;62.58;;
76338;Laerm;20358;50.272;19.026;2024-03-08T16:17:24;50.93;39.32;64.44;;
76338;Laerm;20358;50.272;19.026;2024-03-08T16:20:29;52.22;44.42;63.84;;
76338;Laerm;20358;50.272;19.026;2024-03-08T16:23:37;50.89;38.20;59.72;;
76338;Laerm;20358;50.272;19.026;2024-03-08T16:26:43;51.71;40.74;59.96;;
76338;Laerm;20358;50.272;19.026;2024-03-08T16:29:52;52.05;40.97;63.68;;
76338;Laerm;20358;50.272;19.026;2024-03-08T16:32:58;51.04;42.38;59.21;;
76338;Laerm;20358;50.272;19.026;2024-03-08T16:36:05;51.21;39.83;63.09;;
76338;Laerm;20358;50.272;19.026;2024-03-08T16:39:13;53.02;44.20;67.07;;
76338;Laerm;20358;50.272;19.026;2024-03-08T16:42:20;52.30;41.71;65.32;;
76338;Laerm;20358;50.272;19.026;2024-03-08T16:45:29;52.39;41.34;64.12;;
76338;Laerm;20358;50.272;19.026;2024-03-08T16:48:36;52.98;39.20;66.92;;
76338;Laerm;20358;50.272;19.026;2024-03-08T16:51:42;51.90;40.53;60.01;;
76338;Laerm;20358;50.272;19.026;2024-03-08T16:54:49;52.27;39.74;63.28;;
76338;Laerm;20358;50.272;19.026;2024-03-08T16:57:58;52.22;42.60;61.34;;
76338;Laerm;20358;50.272;19.026;2024-03-08T17:01:10;50.88;39.15;60.80;;
76338;Laerm;20358;50.272;19.026;2024-03-08T17:04:16;52.26;39.94;61.28;;
76338;Laerm;20358;50.272;19.026;2024-03-08T17:07:25;50.65;40.61;62.50;;
76338;Laerm;20358;50.272;19.026;2024-03-08T17:10:35;51.41;37.71;63.92;;
76338;Laerm;20358;50.272;19.026;2024-03-08T17:13:44;52.59;38.29;65.01;;
76338;Laerm;20358;50.272;19.026;2024-03-08T17:16:52;52.01;37.78;61.28;;